Latest Weather Observations for McCluer Island

IDD60801

Issued at 9:05 am CST Thursday 24 July 2014 (issued every 30 minutes, with the page automatically refreshed every 10 minutes)

About weather observations | Map of weather stations | Latest weather observations for NT | Other Formats
Station Details ID: 014274 Name: MCCLUER ISLAND Lat: -11.05 Lon: 132.98 Height: 1.4 m
Data from the previous 72 hours. | See also: Recent months at McCluer Island
Date/Time
CST
Temp
°C
App
Temp
°C
Dew
Point
Rel
Hum
%
Delta-T
°C
Wind Press
QNH
hPa
Press
MSL
hPa
Rain
since 9 am
mm
Dir
 
Spd
km/h
Gust
km/h
Spd
kts
Gust
kts
24/09:00am 24.7 23.3 22.0 85 1.8 ESE 32 35 17 19 1014.6 1014.6 0.0
24/08:30am 24.8 23.8 21.9 84 1.9 ESE 30 35 16 19 1014.2 - 0.0
24/08:00am 24.5 23.3 22.2 87 1.5 ESE 32 35 17 19 1013.7 - 0.0
24/07:30am 23.9 22.7 21.6 87 1.5 ESE 30 33 16 18 1013.4 - 0.0
24/07:00am 24.2 22.8 21.9 87 1.5 E 32 37 17 20 1013.0 - 0.0
24/06:30am 24.3 23.2 22.4 89 1.3 E 32 39 17 21 1012.4 - 0.0
24/06:00am 24.5 23.3 22.6 89 1.3 E 33 39 18 21 1012.3 1012.3 0.0
24/05:30am 24.4 23.4 22.7 90 1.1 E 32 35 17 19 1012.2 - 0.0
24/05:00am 24.7 24.2 22.9 90 1.2 E 30 33 16 18 1012.3 - 0.0
24/04:30am 24.6 24.8 22.8 90 1.2 E 26 30 14 16 1012.5 - 0.0
24/04:00am 24.7 25.1 23.1 91 1.1 E 26 30 14 16 1012.5 - 0.0
24/03:30am 25.1 26.8 24.1 94 0.7 E 22 26 12 14 1012.5 - 0.0
24/03:00am 25.0 27.0 23.6 92 1.0 E 19 22 10 12 1012.7 1012.7 0.0
24/02:30am 24.8 27.8 22.7 88 1.4 E 11 15 6 8 1012.8 - 0.0
24/02:00am 24.9 27.6 22.8 88 1.4 E 13 15 7 8 1012.7 - 0.0
24/01:30am 24.7 26.2 22.0 85 1.8 E 17 20 9 11 1012.7 - 0.0
24/01:00am 24.8 26.0 22.5 87 1.5 ENE 20 24 11 13 1012.8 - 0.0
24/12:30am 25.0 25.7 22.9 88 1.4 ENE 24 28 13 15 1013.1 - 0.0
24/12:00am 24.8 25.3 22.7 88 1.4 ENE 24 28 13 15 1013.1 1013.1 0.0
 
Date/Time
CST
Temp
°C
App
Temp
°C
Dew
Point
Rel
Hum
%
Delta-T
°C
Wind Press
QNH
hPa
Press
MSL
hPa
Rain
since 9 am
mm
Dir
 
Spd
km/h
Gust
km/h
Spd
kts
Gust
kts
23/11:30pm 24.5 25.0 22.6 89 1.3 ENE 24 26 13 14 1013.2 - 0.0
23/11:00pm 24.7 25.4 22.9 90 1.2 E 24 28 13 15 1013.2 - 0.0
23/10:30pm 24.6 25.5 22.7 89 1.3 E 22 24 12 13 1013.3 - 0.0
23/10:00pm 24.2 24.4 22.1 88 1.4 E 24 28 13 15 1013.2 - 0.0
23/09:30pm 24.5 24.2 22.6 89 1.3 E 28 32 15 17 1013.2 - 0.0
23/09:00pm 24.2 24.1 22.3 89 1.3 E 26 28 14 15 1013.1 1013.1 0.0
23/08:30pm 24.2 24.3 21.9 87 1.5 E 24 28 13 15 1013.0 - 0.0
23/08:00pm 24.3 24.5 22.0 87 1.5 E 24 26 13 14 1012.8 - 0.0
23/07:30pm 24.3 24.3 21.6 85 1.8 E 24 28 13 15 1012.3 - 0.0
23/07:00pm 24.3 24.6 21.6 85 1.8 E 22 24 12 13 1012.1 - 0.0
23/06:30pm 24.6 25.0 21.7 84 1.9 E 22 26 12 14 1011.8 - 0.0
23/06:00pm 25.0 25.9 21.5 81 2.3 E 19 22 10 12 1011.7 1011.7 0.0
23/05:30pm 25.1 25.6 20.8 77 2.8 ESE 19 24 10 13 1011.6 - 0.0
23/05:00pm 25.3 25.5 20.1 73 3.4 ESE 19 26 10 14 1011.4 - 0.0
23/04:30pm 25.6 25.7 19.9 70 3.7 ESE 19 24 10 13 1011.3 - 0.0
23/04:00pm 26.0 25.7 19.6 68 4.1 SE 20 26 11 14 1011.2 - 0.0
23/03:30pm 25.6 25.9 19.5 69 3.9 SE 17 24 9 13 1011.4 - 0.0
23/03:00pm 26.6 26.7 20.0 67 4.3 SE 19 26 10 14 1011.7 1011.7 0.0
23/02:30pm 25.8 25.6 19.7 69 3.9 SE 20 32 11 17 1011.9 - 0.0
23/02:00pm 26.1 26.0 20.0 69 4.0 SSE 20 30 11 16 1012.1 - 0.0
23/01:30pm 25.8 25.7 19.9 70 3.8 SE 20 35 11 19 1012.6 - 0.0
23/01:00pm 27.0 26.9 20.8 69 4.1 SE 22 32 12 17 1012.9 - 0.0
23/12:30pm 25.8 25.5 20.4 72 3.5 SE 22 32 12 17 1013.2 - 0.0
23/12:00pm 25.6 25.2 20.2 72 3.5 SE 22 30 12 16 1013.6 1013.6 0.0
23/11:30am 26.3 26.0 21.1 73 3.4 SE 24 33 13 18 1014.1 - 0.0
23/11:00am 25.6 24.9 21.1 76 3.0 SE 26 37 14 20 1014.3 - 0.0
23/10:30am 25.3 24.3 20.5 75 3.1 SE 26 35 14 19 1014.6 - 0.0
23/10:00am 25.0 24.3 21.1 79 2.6 SE 26 35 14 19 1014.6 - 0.0
23/09:30am 24.4 23.8 21.3 83 2.0 SE 26 35 14 19 1014.7 - 0.0
23/09:00am 25.2 24.7 21.5 80 2.5 SE 26 33 14 18 1014.7 1014.7 0.0
23/08:30am 24.5 23.7 20.8 80 2.4 ESE 26 33 14 18 1014.5 - 0.0
23/08:00am 23.5 22.9 21.2 87 1.5 ESE 26 33 14 18 1014.3 - 0.0
23/07:30am 23.3 22.7 21.2 88 1.4 ESE 26 33 14 18 1013.9 - 0.0
23/07:00am 23.4 22.0 21.1 87 1.5 ESE 30 35 16 19 1013.6 - 0.0
23/06:30am 23.5 21.5 20.8 85 1.8 ESE 32 39 17 21 1013.4 - 0.0
23/06:00am 23.7 21.5 20.8 84 1.9 E 33 39 18 21 1013.2 1013.2 0.0
23/05:30am 23.8 21.6 20.7 83 2.0 ESE 33 39 18 21 1013.1 - 0.0
23/05:00am 23.7 21.6 21.0 85 1.8 ESE 33 39 18 21 1013.0 - 0.0
23/04:30am 23.9 21.3 20.6 82 2.1 ESE 35 41 19 22 1012.9 - 0.0
23/04:00am 23.8 22.0 21.1 85 1.8 ESE 32 39 17 21 1012.8 - 0.0
23/03:30am 24.0 22.0 21.1 84 1.9 ESE 33 39 18 21 1012.7 - 0.0
23/03:00am 24.6 23.0 21.9 85 1.8 E 33 39 18 21 1012.7 1012.7 0.0
23/02:30am 24.4 21.6 21.1 82 2.2 E 37 43 20 23 1012.8 - 0.0
23/02:00am 24.3 21.9 21.0 82 2.2 E 35 41 19 22 1013.0 - 0.0
23/01:30am 24.6 22.6 21.9 85 1.8 E 35 41 19 22 1013.2 - 0.0
23/01:00am 25.0 23.2 22.3 85 1.8 E 35 43 19 23 1013.5 - 0.0
23/12:30am 24.9 23.2 22.4 86 1.7 E 35 43 19 23 1013.7 - 0.0
23/12:00am 24.9 23.4 22.8 88 1.4 E 35 39 19 21 1013.8 1013.8 0.0
 
Date/Time
CST
Temp
°C
App
Temp
°C
Dew
Point
Rel
Hum
%
Delta-T
°C
Wind Press
QNH
hPa
Press
MSL
hPa
Rain
since 9 am
mm
Dir
 
Spd
km/h
Gust
km/h
Spd
kts
Gust
kts
22/11:30pm 25.2 23.5 22.5 85 1.8 E 35 43 19 23 1014.0 - 0.0
22/11:00pm 24.8 23.4 21.9 84 1.9 E 32 37 17 20 1014.1 - 0.0
22/10:30pm 25.2 24.0 22.3 84 1.9 E 32 37 17 20 1014.2 - 0.0
22/10:00pm 24.8 23.9 22.1 85 1.8 ENE 30 37 16 20 1014.1 - 0.0
22/09:30pm 24.8 23.3 21.7 83 2.1 ENE 32 35 17 19 1013.8 - 0.0
22/09:00pm 24.6 22.9 21.3 82 2.2 E 32 37 17 20 1013.7 1013.7 0.0
22/08:30pm 24.9 23.7 22.2 85 1.8 E 32 37 17 20 1013.5 - 0.0
22/08:00pm 24.9 23.3 21.6 82 2.2 E 32 37 17 20 1013.3 - 0.0
22/07:30pm 24.8 23.5 22.1 85 1.8 E 32 37 17 20 1013.1 - 0.0
22/07:00pm 24.5 23.5 22.0 86 1.7 E 30 37 16 20 1012.8 - 0.0
22/06:30pm 24.8 23.3 22.1 85 1.8 E 33 39 18 21 1012.5 - 0.0
22/06:00pm 24.5 22.7 21.6 84 1.9 E 33 39 18 21 1012.4 1012.4 0.0
22/05:30pm 25.0 23.4 21.9 83 2.1 E 33 41 18 22 1012.5 - 0.0
22/05:00pm 25.4 23.9 22.1 82 2.2 E 33 39 18 21 1012.6 - 0.0
22/04:30pm 25.1 23.4 21.4 80 2.4 ESE 32 37 17 20 1012.5 - 0.0
22/04:00pm 25.0 22.9 20.9 78 2.7 ESE 33 39 18 21 1012.4 - 0.0
22/03:30pm 25.4 23.7 21.7 80 2.5 E 33 41 18 22 1012.5 - 0.0
22/03:00pm 24.8 22.7 20.9 79 2.6 ESE 33 39 18 21 1012.6 1012.6 0.0
22/02:30pm 25.3 23.3 21.2 78 2.7 E 33 39 18 21 1012.9 - 0.0
22/02:00pm 25.4 23.5 21.3 78 2.7 ESE 33 37 18 20 1013.1 - 0.0
22/01:30pm 25.1 22.8 20.6 76 2.9 ESE 33 39 18 21 1013.4 - 0.0
22/01:00pm 25.5 23.1 20.3 73 3.4 ESE 33 41 18 22 1013.8 - 0.0
22/12:30pm 26.1 23.5 20.0 69 4.0 ESE 33 39 18 21 1014.1 - 0.0
22/12:00pm 25.0 22.0 19.8 73 3.4 ESE 35 41 19 22 1014.6 1014.6 0.0
22/11:30am 25.4 23.0 20.4 74 3.3 ESE 33 41 18 22 1015.0 - 0.0
22/11:00am 24.6 21.4 19.4 73 3.3 ESE 35 41 19 22 1015.4 - 0.0
22/10:30am 24.7 21.7 19.8 74 3.2 ESE 35 41 19 22 1015.8 - 0.0
22/10:00am 24.3 20.9 19.1 73 3.3 ESE 35 41 19 22 1016.0 - 0.0
22/09:30am 24.5 21.5 19.8 75 3.0 E 35 41 19 22 1016.1 - 0.0
22/09:00am 24.2 21.1 20.5 80 2.4 E 37 44 20 24 1015.9 1015.9 0.0
22/08:30am 23.9 20.4 20.4 81 2.3 E 39 43 21 23 1015.8 - 0.0
22/08:00am 23.8 21.1 20.5 82 2.1 ESE 35 43 19 23 1015.6 - 0.0
22/07:30am 23.1 20.6 20.8 87 1.5 ESE 35 41 19 22 1015.1 - 0.0
22/07:00am 23.5 21.3 22.1 92 0.9 ESE 37 43 20 23 1014.8 - 0.0
22/06:30am 23.1 21.0 21.7 92 0.9 ESE 35 43 19 23 1014.6 - 0.0
22/06:00am 23.4 20.7 22.0 92 0.9 ESE 39 44 21 24 1014.3 1014.3 0.0
22/05:30am 23.5 20.2 21.6 89 1.3 ESE 41 48 22 26 1014.1 - 0.0
22/05:00am 23.5 20.3 21.8 90 1.1 ESE 41 50 22 27 1014.0 - 0.0
22/04:30am 23.2 20.2 21.3 89 1.2 ESE 39 48 21 26 1013.9 - 0.0
22/04:00am 23.8 21.6 22.1 90 1.1 ESE 37 46 20 25 1013.9 - 0.0
22/03:30am 23.5 21.0 21.6 89 1.3 ESE 37 48 20 26 1014.0 - 0.0
22/03:00am 24.3 21.1 21.8 86 1.7 ESE 41 48 22 26 1014.0 1014.0 0.0
22/02:30am 24.5 22.1 22.6 89 1.3 E 39 46 21 25 1014.2 - 0.0
22/02:00am 24.4 21.7 21.9 86 1.7 E 39 46 21 25 1014.3 - 0.0
22/01:30am 25.0 23.9 23.4 91 1.1 E 35 43 19 23 1014.3 - 0.0
22/01:00am 25.0 24.1 23.1 89 1.3 E 33 39 18 21 1014.4 - 0.0
22/12:30am 25.2 24.2 22.7 86 1.7 E 32 37 17 20 1014.6 - 0.0
22/12:00am 25.2 24.6 22.7 86 1.7 E 30 33 16 18 1014.7 1014.7 0.0
 
Date/Time
CST
Temp
°C
App
Temp
°C
Dew
Point
Rel
Hum
%
Delta-T
°C
Wind Press
QNH
hPa
Press
MSL
hPa
Rain
since 9 am
mm
Dir
 
Spd
km/h
Gust
km/h
Spd
kts
Gust
kts
21/11:30pm 25.2 24.1 22.5 85 1.8 E 32 35 17 19 1014.7 - 0.0
21/11:00pm 25.1 24.2 22.2 84 1.9 E 30 35 16 19 1014.8 - 0.0
21/10:30pm 25.0 25.1 22.5 86 1.7 ENE 26 30 14 16 1015.0 - 0.0
21/10:00pm 25.1 25.6 22.6 86 1.7 ENE 24 28 13 15 1015.1 - 0.0
21/09:30pm 25.3 25.6 23.0 87 1.6 ENE 26 30 14 16 1015.1 - 0.0
21/09:00pm 25.1 23.9 22.2 84 1.9 ENE 32 37 17 20 1015.0 1015.0 0.0
21/08:30pm 25.0 23.8 22.7 87 1.5 ENE 33 39 18 21 1014.8 - 0.0
21/08:00pm 25.0 24.0 22.7 87 1.5 ENE 32 37 17 20 1014.4 - 0.0
21/07:30pm 25.0 23.7 22.5 86 1.7 ENE 33 39 18 21 1014.1 - 0.0
21/07:00pm 24.8 23.5 22.5 87 1.5 ENE 33 39 18 21 1013.7 - 0.0
21/06:30pm 25.1 23.7 23.0 88 1.4 E 35 41 19 22 1013.4 - 0.0
21/06:00pm 25.1 23.3 22.2 84 1.9 E 35 41 19 22 1013.0 1013.0 0.0
21/05:30pm 25.4 23.3 21.7 80 2.5 E 35 41 19 22 1012.8 - 0.0
21/05:00pm 25.6 23.2 21.1 76 3.0 E 35 41 19 22 1012.8 - 0.0
21/04:30pm 25.6 22.1 19.7 70 3.8 E 37 43 20 23 1012.7 - 0.0
21/04:00pm 26.1 23.9 20.7 72 3.5 E 33 39 18 21 1012.8 - 0.0
21/03:30pm 26.1 24.7 21.1 74 3.3 ESE 30 35 16 19 1012.8 - 0.0
21/03:00pm 25.8 23.8 20.8 74 3.3 ESE 32 35 17 19 1012.8 1012.8 0.0
21/02:30pm 25.9 24.4 20.9 74 3.3 ESE 30 35 16 19 1013.1 - 0.0
21/02:00pm 26.1 25.5 21.3 75 3.2 ESE 26 33 14 18 1013.6 - 0.0
21/01:30pm 25.6 25.1 21.5 78 2.7 ESE 26 30 14 16 1013.9 - 0.0
21/01:00pm 25.6 25.3 21.9 80 2.5 ESE 26 33 14 18 1014.1 - 0.0
21/12:30pm 25.9 26.6 22.2 80 2.5 ESE 22 30 12 16 1014.5 - 0.0
21/12:00pm 26.1 26.9 22.4 80 2.5 ESE 22 28 12 15 1014.9 1014.9 0.0
21/11:30am 25.5 26.2 22.2 82 2.2 ESE 22 30 12 16 1015.2 - 0.0
21/11:00am 25.6 25.7 21.9 80 2.5 ESE 24 33 13 18 1015.5 - 0.0
21/10:30am 25.4 24.5 22.1 82 2.2 ESE 30 33 16 18 1015.6 - 0.0
21/10:00am 25.4 25.0 22.3 83 2.1 ESE 28 35 15 19 1015.6 - 0.0
21/09:30am 24.9 24.2 21.8 83 2.1 ESE 28 32 15 17 1015.7 - 0.0

Other Formats:

Comma delimited format used in spreadsheet applications
http://www.bom.gov.au/fwo/IDD60801/IDD60801.94135.axf

JavaScript Object Notation format (JSON) in row-major order
http://www.bom.gov.au/fwo/IDD60801/IDD60801.94135.json